Карточка аэропорта USTR

Внимание!
Информация на этой странице в стадии наполнения.
Если вы не увидели какой-то информации, или заметили неточность - пожалуйста сообщите нам!
Спасибо!
Команда RU-STAFF
Название аэропортаРощино
Название аэропорта (англ.)Roshschino
Превышение378 ft. (115.2 m.)
Координаты57°10.098', 65°19.002'
Высота перехода700m
Эшелон переходаFL040
Коды ответчика5101-5137
Зона ОрВДТюмень РПИ (USTV)
Данные METARUSTR 290700Z 33002MPS 270V020 9999 BKN023CB OVC046 01/M06 Q1029 R30/CLRD65 R21/190063 TEMPO 1000 SHSN VV005
Проноз погоды (TAF)USTR 290436Z 2906/3006 34003G09MPS 5000 -SHRA SCT011 BKN016CB BECMG 2909/2910 FEW007 SCT020CB FM291200 02003MPS 3100 -SHSN MIFG SCT005 SCT016CB TEMPO 2912/2918 VRB01MPS 0500 FZFG VV002
NOTAMshow/hide NOTAM
AWOS   TABLE

Информация о ВПП

ВПП Длина ВПП (м.) Покрытие Курс ВПП Частота ILS
122704Асфальтобетон121 
302704Асфальтобетон301 
033003Асфальтобетон34108.3
213003Асфальтобетон214110.7

Диспетчерские позиции

Позывной Наименование органа УВД Частота
USTR_R_APPТюмень-Круг126.100
USTR_GNDТюмень-Руление119.000
USTR_TWRТюмень-Старт118.200



Спутниковое изображение